sensor_id;sensor_type;location;lat;lon;timestamp;temperature;humidity
50548;DHT22;38013;48.810;8.818;2023-02-11T00:00:21;0.20;63.70
50548;DHT22;38013;48.810;8.818;2023-02-11T00:02:48;0.20;63.60
50548;DHT22;38013;48.810;8.818;2023-02-11T00:05:15;0.20;63.50
50548;DHT22;38013;48.810;8.818;2023-02-11T00:07:42;0.20;63.50
50548;DHT22;38013;48.810;8.818;2023-02-11T00:10:09;0.20;63.50
50548;DHT22;38013;48.810;8.818;2023-02-11T00:12:36;0.10;63.40
50548;DHT22;38013;48.810;8.818;2023-02-11T00:15:06;0.10;63.40
50548;DHT22;38013;48.810;8.818;2023-02-11T00:17:33;0.10;63.50
50548;DHT22;38013;48.810;8.818;2023-02-11T00:20:00;0.10;64.40
50548;DHT22;38013;48.810;8.818;2023-02-11T00:22:27;0.10;63.20
50548;DHT22;38013;48.810;8.818;2023-02-11T00:24:53;0.10;63.30
50548;DHT22;38013;48.810;8.818;2023-02-11T00:27:22;0.10;63.50
50548;DHT22;38013;48.810;8.818;2023-02-11T00:29:50;0.00;63.50
50548;DHT22;38013;48.810;8.818;2023-02-11T00:32:17;0.00;63.60
50548;DHT22;38013;48.810;8.818;2023-02-11T00:34:44;-0.10;63.60
50548;DHT22;38013;48.810;8.818;2023-02-11T00:37:10;-0.10;63.70
50548;DHT22;38013;48.810;8.818;2023-02-11T00:39:40;-0.10;63.90
50548;DHT22;38013;48.810;8.818;2023-02-11T00:42:07;-0.20;63.70
50548;DHT22;38013;48.810;8.818;2023-02-11T00:44:43;-0.20;63.80
50548;DHT22;38013;48.810;8.818;2023-02-11T00:47:10;-0.20;63.90
50548;DHT22;38013;48.810;8.818;2023-02-11T00:49:37;-0.20;64.00
50548;DHT22;38013;48.810;8.818;2023-02-11T00:52:05;-0.30;64.10
50548;DHT22;38013;48.810;8.818;2023-02-11T00:54:33;-0.30;64.20
50548;DHT22;38013;48.810;8.818;2023-02-11T00:57:00;-0.30;64.30
50548;DHT22;38013;48.810;8.818;2023-02-11T00:59:27;-0.30;64.50
50548;DHT22;38013;48.810;8.818;2023-02-11T01:01:54;-0.40;64.50
50548;DHT22;38013;48.810;8.818;2023-02-11T01:04:21;-0.30;64.60
50548;DHT22;38013;48.810;8.818;2023-02-11T01:06:50;-0.40;64.60
50548;DHT22;38013;48.810;8.818;2023-02-11T01:09:17;-0.40;65.60
50548;DHT22;38013;48.810;8.818;2023-02-11T01:11:46;-0.40;64.20
50548;DHT22;38013;48.810;8.818;2023-02-11T01:14:13;-0.40;64.40
50548;DHT22;38013;48.810;8.818;2023-02-11T01:16:40;-0.40;64.50
50548;DHT22;38013;48.810;8.818;2023-02-11T01:19:07;-0.40;64.50
50548;DHT22;38013;48.810;8.818;2023-02-11T01:21:34;-0.40;64.50
50548;DHT22;38013;48.810;8.818;2023-02-11T01:24:00;-0.40;64.50
50548;DHT22;38013;48.810;8.818;2023-02-11T01:26:27;-0.30;64.60
50548;DHT22;38013;48.810;8.818;2023-02-11T01:28:57;-0.40;64.60
50548;DHT22;38013;48.810;8.818;2023-02-11T01:31:26;-0.40;64.60
50548;DHT22;38013;48.810;8.818;2023-02-11T01:33:53;-0.40;64.70
50548;DHT22;38013;48.810;8.818;2023-02-11T01:36:20;-0.40;64.70
50548;DHT22;38013;48.810;8.818;2023-02-11T01:38:47;-0.40;64.70
50548;DHT22;38013;48.810;8.818;2023-02-11T01:41:15;-0.40;64.70
50548;DHT22;38013;48.810;8.818;2023-02-11T01:43:47;-0.40;64.80
50548;DHT22;38013;48.810;8.818;2023-02-11T01:46:36;-0.50;65.00
50548;DHT22;38013;48.810;8.818;2023-02-11T01:49:06;-0.50;65.10
50548;DHT22;38013;48.810;8.818;2023-02-11T01:51:40;-0.40;64.90
50548;DHT22;38013;48.810;8.818;2023-02-11T01:54:13;-0.50;64.90
50548;DHT22;38013;48.810;8.818;2023-02-11T01:57:02;-0.50;64.90
50548;DHT22;38013;48.810;8.818;2023-02-11T02:05:39;-0.50;65.00
50548;DHT22;38013;48.810;8.818;2023-02-11T02:08:30;-0.50;65.00
50548;DHT22;38013;48.810;8.818;2023-02-11T02:11:00;-0.50;65.40
50548;DHT22;38013;48.810;8.818;2023-02-11T02:13:30;-0.50;64.70
50548;DHT22;38013;48.810;8.818;2023-02-11T02:16:07;-0.40;64.90
50548;DHT22;38013;48.810;8.818;2023-02-11T02:24:43;-0.40;65.60
50548;DHT22;38013;48.810;8.818;2023-02-11T02:27:47;-0.40;64.80
50548;DHT22;38013;48.810;8.818;2023-02-11T02:31:15;-0.40;64.70
50548;DHT22;38013;48.810;8.818;2023-02-11T02:36:34;-0.50;64.80
50548;DHT22;38013;48.810;8.818;2023-02-11T02:39:21;-0.40;64.80
50548;DHT22;38013;48.810;8.818;2023-02-11T02:41:51;-0.50;65.00
50548;DHT22;38013;48.810;8.818;2023-02-11T02:44:19;-0.50;64.40
50548;DHT22;38013;48.810;8.818;2023-02-11T02:46:46;-0.50;64.60
50548;DHT22;38013;48.810;8.818;2023-02-11T02:49:14;-0.50;64.60
50548;DHT22;38013;48.810;8.818;2023-02-11T02:52:04;-0.50;64.90
50548;DHT22;38013;48.810;8.818;2023-02-11T02:58:05;-0.60;65.40
50548;DHT22;38013;48.810;8.818;2023-02-11T03:00:47;-0.50;65.20
50548;DHT22;38013;48.810;8.818;2023-02-11T03:03:51;-0.60;64.90
50548;DHT22;38013;48.810;8.818;2023-02-11T03:09:30;-0.50;65.50
50548;DHT22;38013;48.810;8.818;2023-02-11T03:12:01;-0.60;64.90
50548;DHT22;38013;48.810;8.818;2023-02-11T03:14:29;-0.60;64.90
50548;DHT22;38013;48.810;8.818;2023-02-11T03:17:00;-0.60;64.90
50548;DHT22;38013;48.810;8.818;2023-02-11T03:19:40;-0.60;65.50
50548;DHT22;38013;48.810;8.818;2023-02-11T03:22:31;-0.50;65.40
50548;DHT22;38013;48.810;8.818;2023-02-11T03:25:03;-0.60;65.10
50548;DHT22;38013;48.810;8.818;2023-02-11T03:27:40;-0.50;64.90
50548;DHT22;38013;48.810;8.818;2023-02-11T03:30:29;-0.60;65.00
50548;DHT22;38013;48.810;8.818;2023-02-11T03:33:11;-0.60;64.70
50548;DHT22;38013;48.810;8.818;2023-02-11T03:35:49;-0.60;64.70
50548;DHT22;38013;48.810;8.818;2023-02-11T03:38:27;-0.70;64.70
50548;DHT22;38013;48.810;8.818;2023-02-11T03:40:57;-0.80;64.80
50548;DHT22;38013;48.810;8.818;2023-02-11T03:43:29;-0.80;64.90
50548;DHT22;38013;48.810;8.818;2023-02-11T03:46:00;-0.90;65.20
50548;DHT22;38013;48.810;8.818;2023-02-11T03:48:35;-0.90;65.20
50548;DHT22;38013;48.810;8.818;2023-02-11T03:51:06;-0.90;65.60
50548;DHT22;38013;48.810;8.818;2023-02-11T03:53:36;-1.00;65.50
50548;DHT22;38013;48.810;8.818;2023-02-11T03:56:07;-0.90;65.70
50548;DHT22;38013;48.810;8.818;2023-02-11T03:58:36;-0.90;65.80
50548;DHT22;38013;48.810;8.818;2023-02-11T04:01:03;-0.90;65.80
50548;DHT22;38013;48.810;8.818;2023-02-11T04:03:30;-0.90;65.90
50548;DHT22;38013;48.810;8.818;2023-02-11T04:05:58;-0.90;65.90
50548;DHT22;38013;48.810;8.818;2023-02-11T04:08:25;-0.90;66.00
50548;DHT22;38013;48.810;8.818;2023-02-11T04:10:52;-0.90;66.10
50548;DHT22;38013;48.810;8.818;2023-02-11T04:13:18;-0.90;66.20
50548;DHT22;38013;48.810;8.818;2023-02-11T04:15:45;-0.90;66.20
50548;DHT22;38013;48.810;8.818;2023-02-11T04:18:14;-0.80;66.40
50548;DHT22;38013;48.810;8.818;2023-02-11T04:20:41;-0.80;66.50
50548;DHT22;38013;48.810;8.818;2023-02-11T04:23:08;-0.70;66.60
50548;DHT22;38013;48.810;8.818;2023-02-11T04:25:35;-0.70;66.80
50548;DHT22;38013;48.810;8.818;2023-02-11T04:28:02;-0.60;66.90
50548;DHT22;38013;48.810;8.818;2023-02-11T04:30:29;-0.50;66.90
50548;DHT22;38013;48.810;8.818;2023-02-11T04:32:57;-0.50;66.90
50548;DHT22;38013;48.810;8.818;2023-02-11T04:35:24;-0.40;67.00
50548;DHT22;38013;48.810;8.818;2023-02-11T04:37:51;-0.30;67.10
50548;DHT22;38013;48.810;8.818;2023-02-11T04:40:18;-0.20;67.10
50548;DHT22;38013;48.810;8.818;2023-02-11T04:42:44;-0.20;67.10
50548;DHT22;38013;48.810;8.818;2023-02-11T04:45:11;-0.10;67.00
50548;DHT22;38013;48.810;8.818;2023-02-11T04:47:38;-0.10;66.80
50548;DHT22;38013;48.810;8.818;2023-02-11T04:50:05;0.00;66.70
50548;DHT22;38013;48.810;8.818;2023-02-11T04:52:32;0.00;66.50
50548;DHT22;38013;48.810;8.818;2023-02-11T04:54:59;0.00;66.30
50548;DHT22;38013;48.810;8.818;2023-02-11T04:57:26;0.00;66.30
50548;DHT22;38013;48.810;8.818;2023-02-11T04:59:52;0.10;66.20
50548;DHT22;38013;48.810;8.818;2023-02-11T05:02:19;0.10;66.10
50548;DHT22;38013;48.810;8.818;2023-02-11T05:04:46;0.10;66.10
50548;DHT22;38013;48.810;8.818;2023-02-11T05:07:13;0.10;66.10
50548;DHT22;38013;48.810;8.818;2023-02-11T05:09:40;0.10;66.10
50548;DHT22;38013;48.810;8.818;2023-02-11T05:12:07;0.20;66.20
50548;DHT22;38013;48.810;8.818;2023-02-11T05:14:34;0.20;66.20
50548;DHT22;38013;48.810;8.818;2023-02-11T05:17:01;0.20;66.30
50548;DHT22;38013;48.810;8.818;2023-02-11T05:19:28;0.20;66.20
50548;DHT22;38013;48.810;8.818;2023-02-11T05:21:56;0.30;66.30
50548;DHT22;38013;48.810;8.818;2023-02-11T05:24:32;0.30;66.40
50548;DHT22;38013;48.810;8.818;2023-02-11T05:26:59;0.30;66.60
50548;DHT22;38013;48.810;8.818;2023-02-11T05:29:26;0.30;66.50
50548;DHT22;38013;48.810;8.818;2023-02-11T05:31:53;0.30;66.60
50548;DHT22;38013;48.810;8.818;2023-02-11T05:34:20;0.30;66.70
50548;DHT22;38013;48.810;8.818;2023-02-11T05:36:47;0.40;66.80
50548;DHT22;38013;48.810;8.818;2023-02-11T05:39:14;0.40;66.90
50548;DHT22;38013;48.810;8.818;2023-02-11T05:41:40;0.40;66.90
50548;DHT22;38013;48.810;8.818;2023-02-11T05:44:07;0.40;67.10
50548;DHT22;38013;48.810;8.818;2023-02-11T05:46:35;0.40;67.10
50548;DHT22;38013;48.810;8.818;2023-02-11T05:49:02;0.50;67.10
50548;DHT22;38013;48.810;8.818;2023-02-11T05:51:29;0.50;67.20
50548;DHT22;38013;48.810;8.818;2023-02-11T05:53:56;0.60;67.20
50548;DHT22;38013;48.810;8.818;2023-02-11T05:56:22;0.60;67.20
50548;DHT22;38013;48.810;8.818;2023-02-11T05:58:49;0.60;67.20
50548;DHT22;38013;48.810;8.818;2023-02-11T06:01:16;0.70;67.30
50548;DHT22;38013;48.810;8.818;2023-02-11T06:03:43;0.70;67.50
50548;DHT22;38013;48.810;8.818;2023-02-11T06:06:11;0.80;67.70
50548;DHT22;38013;48.810;8.818;2023-02-11T06:08:38;0.80;67.90
50548;DHT22;38013;48.810;8.818;2023-02-11T06:11:05;0.90;68.00
50548;DHT22;38013;48.810;8.818;2023-02-11T06:13:32;0.90;67.70
50548;DHT22;38013;48.810;8.818;2023-02-11T06:16:00;1.00;67.70
50548;DHT22;38013;48.810;8.818;2023-02-11T06:18:28;1.00;67.70
50548;DHT22;38013;48.810;8.818;2023-02-11T06:20:55;1.10;67.70
50548;DHT22;38013;48.810;8.818;2023-02-11T06:23:22;1.10;67.80
50548;DHT22;38013;48.810;8.818;2023-02-11T06:25:49;1.10;67.80
50548;DHT22;38013;48.810;8.818;2023-02-11T06:28:17;1.10;67.90
50548;DHT22;38013;48.810;8.818;2023-02-11T06:30:45;1.20;67.90
50548;DHT22;38013;48.810;8.818;2023-02-11T06:33:11;1.20;67.90
50548;DHT22;38013;48.810;8.818;2023-02-11T06:35:39;1.20;67.80
50548;DHT22;38013;48.810;8.818;2023-02-11T06:38:05;1.30;67.70
50548;DHT22;38013;48.810;8.818;2023-02-11T06:40:32;1.30;67.70
50548;DHT22;38013;48.810;8.818;2023-02-11T06:42:59;1.40;67.70
50548;DHT22;38013;48.810;8.818;2023-02-11T06:45:26;1.40;67.70
50548;DHT22;38013;48.810;8.818;2023-02-11T06:47:53;1.40;67.60
50548;DHT22;38013;48.810;8.818;2023-02-11T06:50:20;1.50;67.60
50548;DHT22;38013;48.810;8.818;2023-02-11T06:52:46;1.40;67.50
50548;DHT22;38013;48.810;8.818;2023-02-11T06:55:14;1.50;67.60
50548;DHT22;38013;48.810;8.818;2023-02-11T06:57:40;1.50;67.60
50548;DHT22;38013;48.810;8.818;2023-02-11T07:00:08;1.50;67.60
50548;DHT22;38013;48.810;8.818;2023-02-11T07:02:35;1.50;67.70
50548;DHT22;38013;48.810;8.818;2023-02-11T07:05:03;1.60;67.70
50548;DHT22;38013;48.810;8.818;2023-02-11T07:07:31;1.60;67.70
50548;DHT22;38013;48.810;8.818;2023-02-11T07:09:59;1.70;67.80
50548;DHT22;38013;48.810;8.818;2023-02-11T07:12:29;1.60;67.60
50548;DHT22;38013;48.810;8.818;2023-02-11T07:14:56;1.70;67.80
50548;DHT22;38013;48.810;8.818;2023-02-11T07:17:23;1.70;67.80
50548;DHT22;38013;48.810;8.818;2023-02-11T07:19:51;1.80;67.80
50548;DHT22;38013;48.810;8.818;2023-02-11T07:22:17;1.80;67.90
50548;DHT22;38013;48.810;8.818;2023-02-11T07:24:44;1.80;67.90
50548;DHT22;38013;48.810;8.818;2023-02-11T07:27:11;1.90;67.90
50548;DHT22;38013;48.810;8.818;2023-02-11T07:29:40;1.90;67.80
50548;DHT22;38013;48.810;8.818;2023-02-11T07:32:07;1.90;67.80
50548;DHT22;38013;48.810;8.818;2023-02-11T07:34:34;2.00;67.80
50548;DHT22;38013;48.810;8.818;2023-02-11T07:37:01;2.00;67.80
50548;DHT22;38013;48.810;8.818;2023-02-11T07:39:28;2.10;68.00
50548;DHT22;38013;48.810;8.818;2023-02-11T07:41:55;2.10;68.60
50548;DHT22;38013;48.810;8.818;2023-02-11T07:44:22;2.20;68.10
50548;DHT22;38013;48.810;8.818;2023-02-11T07:46:49;2.20;68.10
50548;DHT22;38013;48.810;8.818;2023-02-11T07:49:16;2.30;68.10
50548;DHT22;38013;48.810;8.818;2023-02-11T07:51:43;2.30;68.00
50548;DHT22;38013;48.810;8.818;2023-02-11T07:54:10;2.40;68.00
50548;DHT22;38013;48.810;8.818;2023-02-11T07:56:37;2.50;68.20
50548;DHT22;38013;48.810;8.818;2023-02-11T07:59:04;2.50;68.20
50548;DHT22;38013;48.810;8.818;2023-02-11T08:01:31;2.60;68.10
50548;DHT22;38013;48.810;8.818;2023-02-11T08:03:59;2.60;67.90
50548;DHT22;38013;48.810;8.818;2023-02-11T08:06:29;2.60;67.90
50548;DHT22;38013;48.810;8.818;2023-02-11T08:09:04;2.70;68.00
50548;DHT22;38013;48.810;8.818;2023-02-11T08:11:32;2.70;68.10
50548;DHT22;38013;48.810;8.818;2023-02-11T08:13:59;2.80;67.90
50548;DHT22;38013;48.810;8.818;2023-02-11T08:16:28;2.80;67.90
50548;DHT22;38013;48.810;8.818;2023-02-11T08:19:00;2.90;67.90
50548;DHT22;38013;48.810;8.818;2023-02-11T08:21:31;3.00;67.80
50548;DHT22;38013;48.810;8.818;2023-02-11T08:23:58;3.00;68.30
50548;DHT22;38013;48.810;8.818;2023-02-11T08:26:28;3.10;67.70
50548;DHT22;38013;48.810;8.818;2023-02-11T08:28:57;3.20;67.70
50548;DHT22;38013;48.810;8.818;2023-02-11T08:31:31;3.20;67.70
50548;DHT22;38013;48.810;8.818;2023-02-11T08:34:00;3.20;67.70
50548;DHT22;38013;48.810;8.818;2023-02-11T08:36:30;3.30;67.60
50548;DHT22;38013;48.810;8.818;2023-02-11T08:39:04;3.40;67.70
50548;DHT22;38013;48.810;8.818;2023-02-11T08:41:50;3.40;67.60
50548;DHT22;38013;48.810;8.818;2023-02-11T08:44:19;3.50;67.60
50548;DHT22;38013;48.810;8.818;2023-02-11T08:46:47;3.50;67.40
50548;DHT22;38013;48.810;8.818;2023-02-11T08:49:15;3.60;67.50
50548;DHT22;38013;48.810;8.818;2023-02-11T08:51:42;3.60;67.40
50548;DHT22;38013;48.810;8.818;2023-02-11T08:54:09;3.70;67.50
50548;DHT22;38013;48.810;8.818;2023-02-11T08:56:37;3.80;67.50
50548;DHT22;38013;48.810;8.818;2023-02-11T08:59:05;3.90;67.60
50548;DHT22;38013;48.810;8.818;2023-02-11T09:01:32;3.90;67.50
50548;DHT22;38013;48.810;8.818;2023-02-11T09:04:00;4.00;67.50
50548;DHT22;38013;48.810;8.818;2023-02-11T09:06:27;4.00;67.40
50548;DHT22;38013;48.810;8.818;2023-02-11T09:08:56;4.20;67.50
50548;DHT22;38013;48.810;8.818;2023-02-11T09:11:33;4.20;67.30
50548;DHT22;38013;48.810;8.818;2023-02-11T09:14:01;4.30;67.30
50548;DHT22;38013;48.810;8.818;2023-02-11T09:16:31;4.30;67.20
50548;DHT22;38013;48.810;8.818;2023-02-11T09:19:02;4.40;67.10
50548;DHT22;38013;48.810;8.818;2023-02-11T09:21:30;4.50;67.10
50548;DHT22;38013;48.810;8.818;2023-02-11T09:23:57;4.60;67.40
50548;DHT22;38013;48.810;8.818;2023-02-11T09:26:29;4.70;66.80
50548;DHT22;38013;48.810;8.818;2023-02-11T09:28:58;4.70;66.90
50548;DHT22;38013;48.810;8.818;2023-02-11T09:31:29;4.70;66.80
50548;DHT22;38013;48.810;8.818;2023-02-11T09:34:01;4.80;67.00
50548;DHT22;38013;48.810;8.818;2023-02-11T09:36:36;4.90;67.10
50548;DHT22;38013;48.810;8.818;2023-02-11T09:39:07;4.90;67.20
50548;DHT22;38013;48.810;8.818;2023-02-11T09:41:54;5.00;67.10
50548;DHT22;38013;48.810;8.818;2023-02-11T09:44:31;5.10;67.30
50548;DHT22;38013;48.810;8.818;2023-02-11T09:47:22;5.20;67.20
50548;DHT22;38013;48.810;8.818;2023-02-11T09:50:06;5.30;67.20
50548;DHT22;38013;48.810;8.818;2023-02-11T09:55:30;5.50;67.30
50548;DHT22;38013;48.810;8.818;2023-02-11T09:58:09;5.60;67.30
50548;DHT22;38013;48.810;8.818;2023-02-11T10:03:38;5.90;67.20
50548;DHT22;38013;48.810;8.818;2023-02-11T10:12:11;6.40;66.80
50548;DHT22;38013;48.810;8.818;2023-02-11T10:18:07;6.80;66.60
50548;DHT22;38013;48.810;8.818;2023-02-11T10:24:00;7.10;65.80
50548;DHT22;38013;48.810;8.818;2023-02-11T10:26:30;7.30;65.90
50548;DHT22;38013;48.810;8.818;2023-02-11T10:29:01;7.50;65.70
50548;DHT22;38013;48.810;8.818;2023-02-11T10:31:39;7.60;65.40
50548;DHT22;38013;48.810;8.818;2023-02-11T10:34:12;7.80;64.60
50548;DHT22;38013;48.810;8.818;2023-02-11T10:36:41;7.90;64.30
50548;DHT22;38013;48.810;8.818;2023-02-11T10:41:51;8.30;64.00
50548;DHT22;38013;48.810;8.818;2023-02-11T10:47:21;8.60;63.50
50548;DHT22;38013;48.810;8.818;2023-02-11T10:49:49;8.80;62.90
50548;DHT22;38013;48.810;8.818;2023-02-11T10:57:30;9.40;61.80
50548;DHT22;38013;48.810;8.818;2023-02-11T11:00:50;9.60;62.20
50548;DHT22;38013;48.810;8.818;2023-02-11T11:03:06;9.80;61.80
50548;DHT22;38013;48.810;8.818;2023-02-11T11:06:00;10.00;61.90
50548;DHT22;38013;48.810;8.818;2023-02-11T11:08:43;10.10;60.90
50548;DHT22;38013;48.810;8.818;2023-02-11T11:11:17;10.30;60.10
50548;DHT22;38013;48.810;8.818;2023-02-11T11:21:43;11.00;58.50
50548;DHT22;38013;48.810;8.818;2023-02-11T11:24:37;11.20;59.60
50548;DHT22;38013;48.810;8.818;2023-02-11T11:27:17;11.40;58.20
50548;DHT22;38013;48.810;8.818;2023-02-11T11:29:53;11.50;58.30
50548;DHT22;38013;48.810;8.818;2023-02-11T11:32:24;11.70;58.20
50548;DHT22;38013;48.810;8.818;2023-02-11T11:35:00;11.80;58.00
50548;DHT22;38013;48.810;8.818;2023-02-11T11:37:31;12.00;57.10
50548;DHT22;38013;48.810;8.818;2023-02-11T11:40:09;12.10;57.10
50548;DHT22;38013;48.810;8.818;2023-02-11T11:42:39;12.30;56.90
50548;DHT22;38013;48.810;8.818;2023-02-11T11:50:55;12.80;56.30
50548;DHT22;38013;48.810;8.818;2023-02-11T11:56:15;13.20;56.50
50548;DHT22;38013;48.810;8.818;2023-02-11T11:58:45;13.50;55.50
50548;DHT22;38013;48.810;8.818;2023-02-11T12:07:12;14.00;54.20
50548;DHT22;38013;48.810;8.818;2023-02-11T12:12:53;14.40;53.40
50548;DHT22;38013;48.810;8.818;2023-02-11T12:15:54;14.50;53.30
50548;DHT22;38013;48.810;8.818;2023-02-11T12:19:06;14.60;51.80
50548;DHT22;38013;48.810;8.818;2023-02-11T12:25:04;14.90;52.40
50548;DHT22;38013;48.810;8.818;2023-02-11T12:27:58;15.00;50.60
50548;DHT22;38013;48.810;8.818;2023-02-11T12:36:42;15.20;48.50
50548;DHT22;38013;48.810;8.818;2023-02-11T12:39:33;15.20;49.10
50548;DHT22;38013;48.810;8.818;2023-02-11T12:42:16;15.20;48.60
50548;DHT22;38013;48.810;8.818;2023-02-11T12:57:13;15.40;49.30
50548;DHT22;38013;48.810;8.818;2023-02-11T13:00:12;15.50;49.10
50548;DHT22;38013;48.810;8.818;2023-02-11T13:05:49;15.70;49.50
50548;DHT22;38013;48.810;8.818;2023-02-11T13:08:33;15.80;48.40
50548;DHT22;38013;48.810;8.818;2023-02-11T13:11:23;15.90;47.40
50548;DHT22;38013;48.810;8.818;2023-02-11T13:14:06;16.00;47.60
50548;DHT22;38013;48.810;8.818;2023-02-11T13:16:43;16.00;47.90
50548;DHT22;38013;48.810;8.818;2023-02-11T13:27:59;16.30;47.20
50548;DHT22;38013;48.810;8.818;2023-02-11T13:30:34;16.40;46.70
50548;DHT22;38013;48.810;8.818;2023-02-11T13:33:16;16.40;47.70
50548;DHT22;38013;48.810;8.818;2023-02-11T13:38:32;16.60;46.40
50548;DHT22;38013;48.810;8.818;2023-02-11T13:41:19;16.60;48.20
50548;DHT22;38013;48.810;8.818;2023-02-11T13:46:54;16.70;46.30
50548;DHT22;38013;48.810;8.818;2023-02-11T13:49:36;16.50;44.70
50548;DHT22;38013;48.810;8.818;2023-02-11T13:55:01;15.80;45.40
50548;DHT22;38013;48.810;8.818;2023-02-11T13:57:35;15.40;45.40
50548;DHT22;38013;48.810;8.818;2023-02-11T14:22:23;11.60;51.80
50548;DHT22;38013;48.810;8.818;2023-02-11T14:25:00;11.40;52.10
50548;DHT22;38013;48.810;8.818;2023-02-11T14:30:47;11.10;52.90
50548;DHT22;38013;48.810;8.818;2023-02-11T14:36:34;10.80;53.30
50548;DHT22;38013;48.810;8.818;2023-02-11T14:42:20;10.70;53.60
50548;DHT22;38013;48.810;8.818;2023-02-11T14:44:52;10.60;54.20
50548;DHT22;38013;48.810;8.818;2023-02-11T14:47:29;10.60;54.30
50548;DHT22;38013;48.810;8.818;2023-02-11T14:50:03;10.60;54.40
50548;DHT22;38013;48.810;8.818;2023-02-11T14:52:36;10.60;54.60
50548;DHT22;38013;48.810;8.818;2023-02-11T14:58:11;10.70;54.60
50548;DHT22;38013;48.810;8.818;2023-02-11T15:00:56;10.70;54.30
50548;DHT22;38013;48.810;8.818;2023-02-11T15:06:07;10.60;54.30
50548;DHT22;38013;48.810;8.818;2023-02-11T15:08:46;10.60;54.30
50548;DHT22;38013;48.810;8.818;2023-02-11T15:11:19;10.50;54.40
50548;DHT22;38013;48.810;8.818;2023-02-11T15:13:47;10.50;54.30
50548;DHT22;38013;48.810;8.818;2023-02-11T15:16:19;10.40;54.50
50548;DHT22;38013;48.810;8.818;2023-02-11T15:18:53;10.40;54.80
50548;DHT22;38013;48.810;8.818;2023-02-11T15:21:25;10.30;54.90
50548;DHT22;38013;48.810;8.818;2023-02-11T15:23:59;10.30;55.40
50548;DHT22;38013;48.810;8.818;2023-02-11T15:26:28;10.30;55.60
50548;DHT22;38013;48.810;8.818;2023-02-11T15:28:55;10.20;55.70
50548;DHT22;38013;48.810;8.818;2023-02-11T15:31:24;10.20;55.90
50548;DHT22;38013;48.810;8.818;2023-02-11T15:33:53;10.10;55.90
50548;DHT22;38013;48.810;8.818;2023-02-11T15:36:22;10.10;56.10
50548;DHT22;38013;48.810;8.818;2023-02-11T15:42:15;10.00;56.70
50548;DHT22;38013;48.810;8.818;2023-02-11T15:44:47;9.90;56.50
50548;DHT22;38013;48.810;8.818;2023-02-11T15:47:22;9.80;56.80
50548;DHT22;38013;48.810;8.818;2023-02-11T15:49:49;9.80;56.90
50548;DHT22;38013;48.810;8.818;2023-02-11T15:52:23;9.70;57.20
50548;DHT22;38013;48.810;8.818;2023-02-11T15:54:52;9.60;57.60
50548;DHT22;38013;48.810;8.818;2023-02-11T15:57:20;9.50;57.50
50548;DHT22;38013;48.810;8.818;2023-02-11T15:59:50;9.50;57.70
50548;DHT22;38013;48.810;8.818;2023-02-11T16:02:33;9.40;57.70
50548;DHT22;38013;48.810;8.818;2023-02-11T16:05:07;9.30;58.30
50548;DHT22;38013;48.810;8.818;2023-02-11T16:07:49;9.20;58.50
50548;DHT22;38013;48.810;8.818;2023-02-11T16:10:29;9.10;58.90
50548;DHT22;38013;48.810;8.818;2023-02-11T16:18:12;8.90;59.00
50548;DHT22;38013;48.810;8.818;2023-02-11T16:20:46;8.80;60.20
50548;DHT22;38013;48.810;8.818;2023-02-11T16:23:21;8.80;59.70
50548;DHT22;38013;48.810;8.818;2023-02-11T16:29:17;8.60;60.80
50548;DHT22;38013;48.810;8.818;2023-02-11T16:31:49;8.60;60.90
50548;DHT22;38013;48.810;8.818;2023-02-11T16:34:21;8.60;60.10
50548;DHT22;38013;48.810;8.818;2023-02-11T16:36:49;8.50;60.70
50548;DHT22;38013;48.810;8.818;2023-02-11T16:39:18;8.50;60.60
50548;DHT22;38013;48.810;8.818;2023-02-11T16:41:50;8.40;60.60
50548;DHT22;38013;48.810;8.818;2023-02-11T16:44:17;8.40;60.80
50548;DHT22;38013;48.810;8.818;2023-02-11T16:46:44;8.40;61.00
50548;DHT22;38013;48.810;8.818;2023-02-11T16:49:24;8.30;61.00
50548;DHT22;38013;48.810;8.818;2023-02-11T16:51:55;8.30;61.90
50548;DHT22;38013;48.810;8.818;2023-02-11T16:54:27;8.30;61.10
50548;DHT22;38013;48.810;8.818;2023-02-11T16:56:55;8.30;61.20
50548;DHT22;38013;48.810;8.818;2023-02-11T16:59:23;8.30;61.10
50548;DHT22;38013;48.810;8.818;2023-02-11T17:01:51;8.20;61.20
50548;DHT22;38013;48.810;8.818;2023-02-11T17:04:22;8.30;61.30
50548;DHT22;38013;48.810;8.818;2023-02-11T17:06:51;8.30;61.40
50548;DHT22;38013;48.810;8.818;2023-02-11T17:09:23;8.20;61.30
50548;DHT22;38013;48.810;8.818;2023-02-11T17:11:55;8.20;61.50
50548;DHT22;38013;48.810;8.818;2023-02-11T17:14:22;8.30;61.30
50548;DHT22;38013;48.810;8.818;2023-02-11T17:16:48;8.30;61.30
50548;DHT22;38013;48.810;8.818;2023-02-11T17:19:17;8.30;61.30
50548;DHT22;38013;48.810;8.818;2023-02-11T17:21:48;8.20;61.30
50548;DHT22;38013;48.810;8.818;2023-02-11T17:24:16;8.30;61.40
50548;DHT22;38013;48.810;8.818;2023-02-11T17:26:44;8.30;61.70
50548;DHT22;38013;48.810;8.818;2023-02-11T17:29:14;8.20;61.00
50548;DHT22;38013;48.810;8.818;2023-02-11T17:31:42;8.30;61.20
50548;DHT22;38013;48.810;8.818;2023-02-11T17:34:10;8.30;61.30
50548;DHT22;38013;48.810;8.818;2023-02-11T17:36:37;8.20;61.30
50548;DHT22;38013;48.810;8.818;2023-02-11T17:39:07;8.20;61.50
50548;DHT22;38013;48.810;8.818;2023-02-11T17:41:35;8.20;61.50
50548;DHT22;38013;48.810;8.818;2023-02-11T17:44:03;8.20;61.60
50548;DHT22;38013;48.810;8.818;2023-02-11T17:46:30;8.20;61.60
50548;DHT22;38013;48.810;8.818;2023-02-11T17:48:58;8.20;61.80
50548;DHT22;38013;48.810;8.818;2023-02-11T17:53:53;8.10;61.80
50548;DHT22;38013;48.810;8.818;2023-02-11T17:56:23;8.10;61.70
50548;DHT22;38013;48.810;8.818;2023-02-11T17:58:50;8.10;61.60
50548;DHT22;38013;48.810;8.818;2023-02-11T18:01:18;8.10;61.70
50548;DHT22;38013;48.810;8.818;2023-02-11T18:03:46;8.10;61.70
50548;DHT22;38013;48.810;8.818;2023-02-11T18:06:12;8.10;61.80
50548;DHT22;38013;48.810;8.818;2023-02-11T18:08:39;8.00;61.70
50548;DHT22;38013;48.810;8.818;2023-02-11T18:11:10;8.00;61.80
50548;DHT22;38013;48.810;8.818;2023-02-11T18:13:37;8.00;61.90
50548;DHT22;38013;48.810;8.818;2023-02-11T18:16:05;8.00;62.00
50548;DHT22;38013;48.810;8.818;2023-02-11T18:18:33;7.90;62.20
50548;DHT22;38013;48.810;8.818;2023-02-11T18:21:02;8.00;62.30
50548;DHT22;38013;48.810;8.818;2023-02-11T18:23:34;7.90;62.30
50548;DHT22;38013;48.810;8.818;2023-02-11T18:26:01;7.90;62.30
50548;DHT22;38013;48.810;8.818;2023-02-11T18:28:32;7.90;62.50
50548;DHT22;38013;48.810;8.818;2023-02-11T18:31:00;7.80;62.50
50548;DHT22;38013;48.810;8.818;2023-02-11T18:33:28;7.80;62.60
50548;DHT22;38013;48.810;8.818;2023-02-11T18:35:56;7.80;62.90
50548;DHT22;38013;48.810;8.818;2023-02-11T18:38:23;7.80;63.00
50548;DHT22;38013;48.810;8.818;2023-02-11T18:40:50;7.80;63.10
50548;DHT22;38013;48.810;8.818;2023-02-11T18:43:18;7.80;63.50
50548;DHT22;38013;48.810;8.818;2023-02-11T18:45:46;7.70;63.50
50548;DHT22;38013;48.810;8.818;2023-02-11T18:48:15;7.70;63.70
50548;DHT22;38013;48.810;8.818;2023-02-11T18:50:44;7.70;63.50
50548;DHT22;38013;48.810;8.818;2023-02-11T18:53:13;7.60;63.60
50548;DHT22;38013;48.810;8.818;2023-02-11T18:55:42;7.60;63.50